الصفحة الرئيسية
METAR-TAF:

METAR-TAF

مطار :

براغ, التشيك

دائرة عرض: 50-12-59N, خط طول: 014-23-42E, ارتفاع: 280 متر

مراقبة الطقس الحالي

تاريخ ووقت الإصدار 14ساعات و 50 دقيقة قبل الساعة 12:00UTC
ريح 12 عقدة من الجنوب
درجة الحرارة 24°درجة مئوية
الرطوبة 57%
ضغط 1021 hPa
الرؤية 10 كم أو أكثر
غيوم قليلة على ارتفاع 4600 قدم

METAR: LKVO 171200Z 17012KT 9999 FEW046 24/15 Q1021

زمن: 04:50 (02:50 UTC)


TAF: مفقودة

أرصاد الطقس والتوقعات من أكثر من 4000 مطار (تقارير الطقس للمطار METAR والتنبؤ بالطقس بالمطارTAF).

المحطات المتاحة هي النقط الصفراء والحمراء على الخريطة.

حرك المؤشر فوق النقطة لمعرفة اسم المحطة.

ثم انقر لمعرفة أرصاد وتوقعات الطقس.

لتغيير الخارطة: اضغط على الأزرار الخضراء مع رمز الصليب الأسود للتكبير. على الزر الأخضر مع شرطة للتصغير، أو على الأسهم الخضراء للخرائط المجاورة.


METAR-TAF: